Flugplatz Essen Mulheim

Für EDLE sind keine METAR/TAF Berichte vorhanden.
Es werden die Flugwettermeldungen vom Flugplatz Düsseldorf International in 17 km Entfernung angezeigt.

Bericht für EDDL

vom 14.08. um 10:50 UTC

Wind 8 kt aus 190°

Sichtweite 10 km oder mehr

gering bewölkt in 4000 ft

Temperatur 28.0°C

Taupunkt 17.0°C

Luftfeuchtigkeit 51%

Luftdruck 1013 hPa

keine wesentliche Wetteränderung innerhalb den nächsten 2 Stunden zu erwarten

EDDL 141050Z 19008KT 9999 FEW040 28/17 Q1013 NOSIG

Prognose für EDDL

vom 14.08. um 05:00 UTC

Zwischen 06:00 UTC und 07:00 UTC

Wind 6 kt aus 210°

Sichtweite 10 km oder mehr

keine signifikanten Wettererscheinungen

keine Wolken


Zwischen 14:00 UTC und 21:00 UTC zeitweise mit einer Wahrscheinlichkeit von 30%

Code: TSRA

aufgebrochene Bewölkung in 2500 ft


Am 15.08. zwischen 03:00 UTC und 09:00 UTC zeitweise mit einer Wahrscheinlichkeit von 30%

Sichtweite 4000 m

feuchter Dunst

aufgebrochene Bewölkung in 800 ft


Am 15.08. zwischen 07:00 und 10:00 UTC übergehend zu

Wind 5 kt aus 270°

Sichtweite 10 km oder mehr

keine signifikanten Wettererscheinungen

keine Wolken

TAF EDDL 140500Z 1406/1512 21006KT CAVOK PROB30 TEMPO 1414/1421 TSRA BKN025CB PROB30 TEMPO 1503/1509 4000 BR BKN008 BECMG 1507/1510 27005KT
Impressum